createdAt,value
2023-12-24T00:02:19.902Z,9.60
2023-12-24T00:04:50.570Z,9.50
2023-12-24T00:07:20.086Z,9.60
2023-12-24T00:09:48.776Z,9.40
2023-12-24T00:12:15.713Z,9.40
2023-12-24T00:14:44.849Z,9.40
2023-12-24T00:17:13.100Z,9.40
2023-12-24T00:19:42.345Z,9.50
2023-12-24T00:22:12.618Z,9.60
2023-12-24T00:24:39.610Z,9.60
2023-12-24T00:27:10.009Z,9.50
2023-12-24T00:29:37.437Z,9.40
2023-12-24T00:32:04.812Z,9.50
2023-12-24T00:34:34.743Z,9.50
2023-12-24T00:37:01.917Z,9.50
2023-12-24T00:39:28.761Z,9.50
2023-12-24T00:41:58.320Z,9.50
2023-12-24T00:44:25.370Z,9.50
2023-12-24T00:46:52.412Z,9.50
2023-12-24T00:49:24.990Z,9.50
2023-12-24T00:51:52.973Z,9.50
2023-12-24T00:54:19.894Z,9.50
2023-12-24T00:56:49.371Z,9.40
2023-12-24T00:59:16.159Z,9.50
2023-12-24T01:01:43.039Z,9.50
2023-12-24T01:04:10.139Z,9.50
2023-12-24T01:06:37.050Z,9.50
2023-12-24T01:09:04.030Z,9.50
2023-12-24T01:11:30.981Z,9.40
2023-12-24T01:13:58.003Z,9.50
2023-12-24T01:16:24.949Z,9.50
2023-12-24T01:18:52.727Z,9.50
2023-12-24T01:21:23.370Z,9.60
2023-12-24T01:23:50.425Z,9.50
2023-12-24T01:26:19.923Z,9.40
2023-12-24T01:28:46.903Z,9.50
2023-12-24T01:31:14.020Z,9.50
2023-12-24T01:33:41.443Z,9.50
2023-12-24T01:36:09.643Z,9.50
2023-12-24T01:38:36.698Z,9.60
2023-12-24T01:41:04.100Z,9.50
2023-12-24T01:43:32.035Z,9.60
2023-12-24T01:45:59.008Z,9.70
2023-12-24T01:48:29.203Z,9.70
2023-12-24T01:51:00.449Z,9.70
2023-12-24T01:53:28.527Z,9.60
2023-12-24T01:55:55.793Z,9.60
2023-12-24T01:58:22.998Z,9.60
2023-12-24T02:00:52.620Z,9.60
2023-12-24T02:03:21.967Z,9.50
2023-12-24T02:05:51.620Z,9.50
2023-12-24T02:08:23.222Z,9.70
2023-12-24T02:10:50.303Z,9.60
2023-12-24T02:13:20.562Z,9.50
2023-12-24T02:15:51.263Z,9.70
2023-12-24T02:18:22.645Z,9.60
2023-12-24T02:20:49.716Z,9.50
2023-12-24T02:23:16.729Z,9.60
2023-12-24T02:25:44.735Z,9.70
2023-12-24T02:28:29.019Z,9.50
2023-12-24T02:31:06.226Z,9.60
2023-12-24T02:33:41.969Z,9.60
2023-12-24T02:36:12.360Z,9.60
2023-12-24T02:38:42.305Z,9.60
2023-12-24T02:41:09.265Z,9.50
2023-12-24T02:43:36.291Z,9.70
2023-12-24T02:46:03.376Z,9.50
2023-12-24T02:48:32.873Z,9.60
2023-12-24T02:50:59.794Z,9.60
2023-12-24T02:53:28.690Z,9.50
2023-12-24T02:56:01.304Z,9.60
2023-12-24T02:58:29.698Z,9.60
2023-12-24T03:00:56.673Z,9.50
2023-12-24T03:03:26.120Z,9.50
2023-12-24T03:05:53.128Z,9.60
2023-12-24T03:08:20.370Z,9.70
2023-12-24T03:10:47.427Z,9.70
2023-12-24T03:13:21.226Z,9.60
2023-12-24T03:15:48.160Z,9.60
2023-12-24T03:18:17.903Z,9.70
2023-12-24T03:20:45.187Z,9.60
2023-12-24T03:23:12.251Z,9.40
2023-12-24T03:25:39.200Z,9.40
2023-12-24T03:28:06.409Z,9.50
2023-12-24T03:30:36.244Z,9.50
2023-12-24T03:33:05.959Z,9.50
2023-12-24T03:35:32.981Z,9.50
2023-12-24T03:38:00.453Z,9.60
2023-12-24T03:40:31.658Z,9.50
2023-12-24T03:43:01.659Z,9.50
2023-12-24T03:45:28.723Z,9.50
2023-12-24T03:47:58.986Z,9.50
2023-12-24T03:50:28.375Z,9.50
2023-12-24T03:52:57.348Z,9.60
2023-12-24T03:55:25.920Z,9.50
2023-12-24T03:57:52.865Z,9.50
2023-12-24T04:00:19.843Z,9.50
2023-12-24T04:02:50.188Z,9.50
2023-12-24T04:05:20.313Z,9.50
2023-12-24T04:07:49.593Z,9.50
2023-12-24T04:10:16.612Z,9.50
2023-12-24T04:12:43.505Z,9.50
2023-12-24T04:15:13.976Z,9.50
2023-12-24T04:17:41.081Z,9.50
2023-12-24T04:20:08.765Z,9.50
2023-12-24T04:22:35.642Z,9.50
2023-12-24T04:25:07.233Z,9.50
2023-12-24T04:27:34.323Z,9.50
2023-12-24T04:30:05.219Z,9.60
2023-12-24T04:32:32.419Z,9.50
2023-12-24T04:35:02.065Z,9.60
2023-12-24T04:37:29.499Z,9.60
2023-12-24T04:39:59.017Z,9.60
2023-12-24T04:42:31.429Z,9.60
2023-12-24T04:44:58.422Z,9.60
2023-12-24T04:47:25.508Z,9.60
2023-12-24T04:50:01.345Z,9.50
2023-12-24T04:52:28.262Z,9.50
2023-12-24T04:54:57.594Z,9.60
2023-12-24T04:57:24.549Z,9.50
2023-12-24T04:59:53.116Z,9.60
2023-12-24T05:02:24.378Z,9.60
2023-12-24T05:04:51.788Z,9.60
2023-12-24T05:07:18.896Z,9.70
2023-12-24T05:09:46.639Z,9.60
2023-12-24T05:12:18.829Z,9.70
2023-12-24T05:14:47.662Z,9.60
2023-12-24T05:17:14.669Z,9.60
2023-12-24T05:19:47.500Z,9.60
2023-12-24T05:22:14.511Z,9.70
2023-12-24T05:24:41.358Z,9.70
2023-12-24T05:27:08.265Z,9.70
2023-12-24T05:29:37.436Z,9.70
2023-12-24T05:32:05.098Z,9.70
2023-12-24T05:34:31.949Z,9.70
2023-12-24T05:37:01.907Z,9.70
2023-12-24T05:39:29.070Z,9.80
2023-12-24T05:41:56.103Z,9.80
2023-12-24T05:44:23.794Z,9.70
2023-12-24T05:46:53.804Z,9.80
2023-12-24T05:49:20.991Z,9.70
2023-12-24T05:51:47.936Z,9.70
2023-12-24T05:54:16.653Z,9.70
2023-12-24T05:56:43.521Z,9.70
2023-12-24T05:59:10.455Z,9.70
2023-12-24T06:01:46.680Z,9.70
2023-12-24T06:04:13.766Z,9.80
2023-12-24T06:06:42.747Z,9.70
2023-12-24T06:09:09.892Z,9.70
2023-12-24T06:11:36.741Z,9.70
2023-12-24T06:14:06.470Z,9.80
2023-12-24T06:16:35.838Z,9.70
2023-12-24T06:19:05.117Z,9.80
2023-12-24T06:21:34.431Z,9.80
2023-12-24T06:24:01.458Z,9.80
2023-12-24T06:26:35.136Z,9.70
2023-12-24T06:29:04.854Z,9.70
2023-12-24T06:31:31.958Z,9.70
2023-12-24T06:33:58.873Z,9.70
2023-12-24T06:36:27.739Z,9.70
2023-12-24T06:38:58.929Z,9.60
2023-12-24T06:41:26.315Z,9.60
2023-12-24T06:43:53.433Z,9.70
2023-12-24T06:46:22.631Z,9.70
2023-12-24T06:48:50.013Z,9.60
2023-12-24T06:51:17.195Z,9.70
2023-12-24T06:53:44.073Z,9.70
2023-12-24T06:56:11.267Z,9.70
2023-12-24T06:58:38.231Z,9.70
2023-12-24T07:01:07.454Z,9.60
2023-12-24T07:03:34.375Z,9.70
2023-12-24T07:06:01.508Z,9.60
2023-12-24T07:08:31.026Z,9.60
2023-12-24T07:11:09.601Z,9.70
2023-12-24T07:13:36.625Z,9.70
2023-12-24T07:16:06.580Z,9.70
2023-12-24T07:18:33.761Z,9.70
2023-12-24T07:21:00.845Z,9.70
2023-12-24T07:23:30.429Z,9.80
2023-12-24T07:25:58.795Z,9.70
2023-12-24T07:28:25.840Z,9.80
2023-12-24T07:30:52.709Z,9.80
2023-12-24T07:33:22.054Z,9.80
2023-12-24T07:35:53.908Z,9.80
2023-12-24T07:38:23.890Z,9.80
2023-12-24T07:40:56.279Z,9.80
2023-12-24T07:43:26.777Z,9.80
2023-12-24T07:45:55.201Z,9.80
2023-12-24T07:48:24.018Z,9.90
2023-12-24T07:53:47.814Z,9.90
2023-12-24T07:56:16.953Z,9.80
2023-12-24T08:01:29.870Z,9.80
2023-12-24T08:03:59.280Z,9.90
2023-12-24T08:06:29.841Z,9.90
2023-12-24T08:12:56.548Z,9.90
2023-12-24T08:21:15.449Z,9.90
2023-12-24T08:23:44.933Z,9.90
2023-12-24T08:27:47.403Z,10.00
2023-12-24T08:30:24.540Z,10.00
2023-12-24T08:32:51.739Z,10.00
2023-12-24T08:35:30.246Z,10.10
2023-12-24T08:38:07.471Z,10.10
2023-12-24T08:40:56.156Z,10.00
2023-12-24T08:44:03.436Z,10.00
2023-12-24T08:51:10.493Z,10.10
2023-12-24T08:54:02.525Z,10.10
2023-12-24T09:02:28.568Z,10.10
2023-12-24T09:05:21.196Z,10.10
2023-12-24T09:11:37.776Z,10.20
2023-12-24T09:14:07.468Z,10.20
2023-12-24T09:16:34.487Z,10.20
2023-12-24T09:19:01.374Z,10.20
2023-12-24T09:21:28.325Z,10.20
2023-12-24T09:23:56.216Z,10.20
2023-12-24T09:26:23.227Z,10.30
2023-12-24T09:28:50.128Z,10.30
2023-12-24T09:31:17.314Z,10.30
2023-12-24T09:33:44.998Z,10.20
2023-12-24T09:36:12.082Z,10.20
2023-12-24T09:38:40.186Z,10.30
2023-12-24T09:41:07.362Z,10.30
2023-12-24T09:43:39.471Z,10.20
2023-12-24T09:46:07.682Z,10.20
2023-12-24T09:48:35.586Z,10.10
2023-12-24T09:51:04.532Z,10.10
2023-12-24T09:53:32.613Z,10.10
2023-12-24T09:56:02.910Z,10.20
2023-12-24T09:58:29.837Z,10.20
2023-12-24T10:00:56.862Z,10.20
2023-12-24T10:03:23.924Z,10.30
2023-12-24T10:06:08.582Z,10.30
2023-12-24T10:08:38.783Z,10.20
2023-12-24T10:11:19.443Z,10.20
2023-12-24T10:13:48.094Z,10.30
2023-12-24T10:16:15.862Z,10.30
2023-12-24T10:18:51.529Z,10.30
2023-12-24T10:21:21.282Z,10.30
2023-12-24T10:23:50.875Z,10.30
2023-12-24T10:26:22.179Z,10.40
2023-12-24T10:28:58.378Z,10.40
2023-12-24T10:31:32.125Z,10.30
2023-12-24T10:34:02.965Z,10.40
2023-12-24T10:36:30.177Z,10.40
2023-12-24T10:38:57.181Z,10.40
2023-12-24T10:41:24.160Z,10.40
2023-12-24T10:43:53.615Z,10.50
2023-12-24T10:46:20.473Z,10.40
2023-12-24T10:48:47.387Z,10.40
2023-12-24T10:51:14.331Z,10.50
2023-12-24T10:53:43.103Z,10.40
2023-12-24T10:56:19.226Z,10.40
2023-12-24T10:59:18.137Z,10.50
2023-12-24T11:01:50.367Z,10.50
2023-12-24T11:04:46.555Z,10.50
2023-12-24T11:07:48.426Z,10.50
2023-12-24T11:10:43.516Z,10.50
2023-12-24T11:13:34.201Z,10.50
2023-12-24T11:16:12.512Z,10.60
2023-12-24T11:19:02.850Z,10.50
2023-12-24T11:21:30.770Z,10.60
2023-12-24T11:24:23.565Z,10.60
2023-12-24T11:27:52.419Z,10.60
2023-12-24T11:31:15.659Z,10.60
2023-12-24T11:34:55.877Z,10.70
2023-12-24T11:37:36.785Z,10.80
2023-12-24T11:40:16.942Z,10.70
2023-12-24T11:47:09.196Z,10.70
2023-12-24T11:52:44.676Z,10.70
2023-12-24T11:55:12.096Z,10.80
2023-12-24T11:55:15.520Z,10.80
2023-12-24T11:57:42.755Z,10.70
2023-12-24T12:00:28.065Z,10.70
2023-12-24T12:03:01.558Z,10.70
2023-12-24T12:05:30.158Z,10.90
2023-12-24T12:07:57.324Z,10.70
2023-12-24T12:10:24.192Z,10.70
2023-12-24T12:12:51.819Z,10.70
2023-12-24T12:15:21.723Z,10.80
2023-12-24T12:17:50.940Z,10.80
2023-12-24T12:20:18.032Z,10.90
2023-12-24T12:22:44.904Z,10.80
2023-12-24T12:25:11.745Z,10.80
2023-12-24T12:27:38.584Z,10.70
2023-12-24T12:30:06.529Z,10.60
2023-12-24T12:32:33.474Z,10.50
2023-12-24T12:35:00.302Z,10.50
2023-12-24T12:37:28.926Z,10.40
2023-12-24T12:39:55.684Z,10.30
2023-12-24T12:42:29.066Z,10.40
2023-12-24T12:44:59.114Z,10.50
2023-12-24T12:47:25.945Z,10.40
2023-12-24T12:49:53.146Z,10.40
2023-12-24T12:52:20.120Z,10.40
2023-12-24T12:54:46.963Z,10.40
2023-12-24T12:57:30.353Z,10.40
2023-12-24T13:00:11.326Z,10.40
2023-12-24T13:02:40.856Z,10.30
2023-12-24T13:05:32.960Z,10.30
2023-12-24T13:08:15.589Z,10.40
2023-12-24T13:10:43.724Z,10.40
2023-12-24T13:13:22.458Z,10.30
2023-12-24T13:16:04.384Z,10.40
2023-12-24T13:18:31.736Z,10.50
2023-12-24T13:21:02.078Z,10.40
2023-12-24T13:23:29.803Z,10.50
2023-12-24T13:25:56.981Z,10.50
2023-12-24T13:28:25.435Z,10.60
2023-12-24T13:30:52.540Z,10.50
2023-12-24T13:33:20.170Z,10.60
2023-12-24T13:35:47.627Z,10.50
2023-12-24T13:38:19.128Z,10.60
2023-12-24T13:40:47.337Z,10.60
2023-12-24T13:43:14.502Z,10.60
2023-12-24T13:45:41.896Z,10.60
2023-12-24T13:48:10.145Z,10.70
2023-12-24T13:50:39.617Z,10.70
2023-12-24T13:53:18.723Z,10.70
2023-12-24T13:55:53.501Z,10.60
2023-12-24T13:58:20.239Z,10.60
2023-12-24T14:00:47.038Z,10.70
2023-12-24T14:03:13.820Z,10.70
2023-12-24T14:05:41.641Z,10.70
2023-12-24T14:08:08.938Z,10.70
2023-12-24T14:10:35.870Z,10.70
2023-12-24T14:13:03.831Z,10.80
2023-12-24T14:15:30.569Z,10.70
2023-12-24T14:17:57.540Z,10.80
2023-12-24T14:20:24.396Z,10.80
2023-12-24T14:22:51.689Z,10.80
2023-12-24T14:25:19.089Z,10.70
2023-12-24T14:27:45.810Z,10.70
2023-12-24T14:30:13.093Z,10.70
2023-12-24T14:32:40.326Z,10.70
2023-12-24T14:35:08.149Z,10.80
2023-12-24T14:37:36.661Z,10.80
2023-12-24T14:40:05.492Z,10.90
2023-12-24T14:42:32.293Z,10.80
2023-12-24T14:44:59.446Z,10.80
2023-12-24T14:47:30.604Z,10.80
2023-12-24T14:49:59.266Z,10.80
2023-12-24T14:52:29.657Z,10.80
2023-12-24T14:54:57.759Z,10.80
2023-12-24T14:57:29.915Z,10.80
2023-12-24T14:59:57.326Z,10.90
2023-12-24T15:02:29.945Z,10.80
2023-12-24T15:04:58.033Z,10.80
2023-12-24T15:07:28.056Z,10.80
2023-12-24T15:09:55.537Z,10.80
2023-12-24T15:12:22.445Z,10.80
2023-12-24T15:14:49.584Z,10.70
2023-12-24T15:17:17.498Z,10.80
2023-12-24T15:19:45.671Z,10.90
2023-12-24T15:22:12.652Z,10.90
2023-12-24T15:24:41.071Z,11.00
2023-12-24T15:27:08.121Z,10.90
2023-12-24T15:29:36.689Z,10.90
2023-12-24T15:32:03.868Z,10.90
2023-12-24T15:34:30.778Z,10.90
2023-12-24T15:36:57.535Z,10.90
2023-12-24T15:39:24.748Z,10.90
2023-12-24T15:41:52.242Z,10.90
2023-12-24T15:44:20.037Z,10.90
2023-12-24T15:46:46.903Z,10.90
2023-12-24T15:49:13.871Z,10.80
2023-12-24T15:51:44.431Z,10.80
2023-12-24T15:54:11.541Z,10.90
2023-12-24T15:56:40.234Z,10.90
2023-12-24T15:59:08.731Z,10.90
2023-12-24T16:01:45.365Z,10.90
2023-12-24T16:04:13.776Z,10.90
2023-12-24T16:06:42.582Z,11.00
2023-12-24T16:09:09.596Z,10.90
2023-12-24T16:11:37.297Z,11.00
2023-12-24T16:14:08.073Z,11.00
2023-12-24T16:16:38.151Z,10.90
2023-12-24T16:19:05.461Z,11.00
2023-12-24T16:21:37.110Z,10.90
2023-12-24T16:24:05.531Z,11.00
2023-12-24T16:26:32.881Z,11.00
2023-12-24T16:28:59.679Z,11.00
2023-12-24T16:31:26.579Z,11.00
2023-12-24T16:33:53.582Z,11.00
2023-12-24T16:36:26.581Z,11.00
2023-12-24T16:38:58.000Z,11.00
2023-12-24T16:41:24.813Z,11.00
2023-12-24T16:43:53.988Z,11.00
2023-12-24T16:46:20.924Z,11.10
2023-12-24T16:48:47.813Z,11.10
2023-12-24T16:51:19.457Z,11.10
2023-12-24T16:55:12.012Z,11.20
2023-12-24T16:58:12.025Z,11.20
2023-12-24T17:00:38.935Z,11.30
2023-12-24T17:03:07.962Z,11.20
2023-12-24T17:05:35.258Z,11.20
2023-12-24T17:12:22.617Z,11.20
2023-12-24T17:14:50.567Z,11.20
2023-12-24T17:17:17.628Z,11.10
2023-12-24T17:19:44.657Z,11.30
2023-12-24T17:22:12.954Z,11.20
2023-12-24T17:24:39.884Z,11.20
2023-12-24T17:27:06.934Z,11.30
2023-12-24T17:29:33.875Z,11.30
2023-12-24T17:32:00.681Z,11.20
2023-12-24T17:34:27.647Z,11.20
2023-12-24T17:36:54.549Z,11.30
2023-12-24T17:39:22.988Z,11.30
2023-12-24T17:41:49.834Z,11.30
2023-12-24T17:44:17.193Z,11.30
2023-12-24T17:46:44.002Z,11.30
2023-12-24T17:49:10.793Z,11.30
2023-12-24T17:51:41.128Z,11.30
2023-12-24T17:54:07.868Z,11.40
2023-12-24T17:56:35.176Z,11.40
2023-12-24T17:59:01.973Z,11.40
2023-12-24T18:01:28.722Z,11.40
2023-12-24T18:03:55.492Z,11.30
2023-12-24T18:06:22.366Z,11.40
2023-12-24T18:08:49.866Z,11.40
2023-12-24T18:11:19.448Z,11.40
2023-12-24T18:13:46.309Z,11.40
2023-12-24T18:16:13.115Z,11.40
2023-12-24T18:18:39.962Z,11.50
2023-12-24T18:21:06.865Z,11.40
2023-12-24T18:23:33.745Z,11.50
2023-12-24T18:26:00.635Z,11.50
2023-12-24T18:28:27.505Z,11.50
2023-12-24T18:30:54.337Z,11.40
2023-12-24T18:33:21.497Z,11.60
2023-12-24T18:35:48.712Z,11.50
2023-12-24T18:38:15.773Z,11.50
2023-12-24T18:40:42.762Z,11.50
2023-12-24T18:43:11.727Z,11.50
2023-12-24T18:45:38.436Z,11.60
2023-12-24T18:48:05.924Z,11.60
2023-12-24T18:50:52.843Z,11.60
2023-12-24T18:53:19.661Z,11.60
2023-12-24T18:55:46.480Z,11.60
2023-12-24T18:58:13.317Z,11.60
2023-12-24T19:00:41.322Z,11.60
2023-12-24T19:03:08.235Z,11.60
2023-12-24T19:05:36.738Z,11.70
2023-12-24T19:08:04.421Z,11.70
2023-12-24T19:10:31.211Z,11.70
2023-12-24T19:12:58.377Z,11.70
2023-12-24T19:15:25.187Z,11.80
2023-12-24T19:17:54.299Z,11.80
2023-12-24T19:20:21.255Z,11.80
2023-12-24T19:22:48.076Z,11.80
2023-12-24T19:25:15.337Z,11.80
2023-12-24T19:27:42.107Z,11.80
2023-12-24T19:30:09.648Z,11.80
2023-12-24T19:32:36.601Z,11.80
2023-12-24T19:35:03.736Z,11.90
2023-12-24T19:37:30.817Z,11.80
2023-12-24T19:39:57.623Z,11.80
2023-12-24T19:42:25.494Z,11.80
2023-12-24T19:44:52.536Z,11.80
2023-12-24T19:47:19.395Z,11.90
2023-12-24T19:49:46.266Z,11.80
2023-12-24T19:52:19.277Z,11.80
2023-12-24T19:54:51.766Z,11.80
2023-12-24T19:57:18.548Z,12.00
2023-12-24T19:59:45.309Z,12.00
2023-12-24T20:02:12.129Z,12.00
2023-12-24T20:04:40.992Z,11.90
2023-12-24T20:07:08.006Z,12.00
2023-12-24T20:09:34.766Z,12.00
2023-12-24T20:12:01.599Z,12.00
2023-12-24T20:14:28.434Z,12.00
2023-12-24T20:16:55.264Z,12.00
2023-12-24T20:19:21.986Z,12.00
2023-12-24T20:21:48.786Z,12.00
2023-12-24T20:24:15.586Z,12.00
2023-12-24T20:26:42.373Z,12.00
2023-12-24T20:29:09.801Z,12.00
2023-12-24T20:31:36.941Z,12.00
2023-12-24T20:34:03.998Z,12.00
2023-12-24T20:36:30.882Z,11.90
2023-12-24T20:38:57.868Z,12.00
2023-12-24T20:41:24.818Z,12.00
2023-12-24T20:43:51.623Z,12.00
2023-12-24T20:46:20.893Z,12.10
2023-12-24T20:48:47.772Z,12.00
2023-12-24T20:51:19.136Z,12.00
2023-12-24T20:53:45.954Z,12.00
2023-12-24T20:56:12.833Z,12.00
2023-12-24T20:58:40.890Z,12.00
2023-12-24T21:01:09.771Z,11.90
2023-12-24T21:03:37.106Z,11.90
2023-12-24T21:06:05.542Z,11.90
2023-12-24T21:08:33.840Z,11.90
2023-12-24T21:11:00.835Z,11.80
2023-12-24T21:13:27.620Z,11.90
2023-12-24T21:15:55.091Z,11.80
2023-12-24T21:18:23.381Z,11.90
2023-12-24T21:20:50.550Z,11.80
2023-12-24T21:23:17.515Z,11.80
2023-12-24T21:25:44.356Z,11.80
2023-12-24T21:28:11.188Z,11.70
2023-12-24T21:30:40.947Z,11.70
2023-12-24T21:33:08.065Z,11.70
2023-12-24T21:35:35.217Z,11.70
2023-12-24T21:38:02.209Z,11.70
2023-12-24T21:40:29.328Z,11.70
2023-12-24T21:43:00.441Z,11.70
2023-12-24T21:45:27.467Z,11.70
2023-12-24T21:47:54.701Z,11.70
2023-12-24T21:50:21.796Z,11.80
2023-12-24T21:52:48.798Z,11.80
2023-12-24T21:55:15.701Z,11.80
2023-12-24T21:57:42.554Z,11.80
2023-12-24T22:00:12.036Z,11.70
2023-12-24T22:02:39.004Z,11.80
2023-12-24T22:05:06.029Z,11.70
2023-12-24T22:07:32.957Z,11.80
2023-12-24T22:10:02.393Z,11.80
2023-12-24T22:12:29.276Z,11.70
2023-12-24T22:14:56.387Z,11.80
2023-12-24T22:17:23.268Z,11.80
2023-12-24T22:19:50.153Z,11.70
2023-12-24T22:22:17.025Z,11.70
2023-12-24T22:24:43.770Z,11.70
2023-12-24T22:27:10.880Z,11.80
2023-12-24T22:29:39.753Z,11.70
2023-12-24T22:32:07.155Z,11.80
2023-12-24T22:34:35.499Z,11.80
2023-12-24T22:37:02.512Z,11.70
2023-12-24T22:39:29.347Z,11.70
2023-12-24T22:41:57.150Z,11.70
2023-12-24T22:44:25.480Z,11.60
2023-12-24T22:46:52.333Z,11.60
2023-12-24T22:49:19.395Z,11.60
2023-12-24T22:51:46.282Z,11.60
2023-12-24T22:54:13.148Z,11.60
2023-12-24T22:56:39.941Z,11.50
2023-12-24T22:59:06.799Z,11.50
2023-12-24T23:01:33.609Z,11.40
2023-12-24T23:04:00.436Z,11.40
2023-12-24T23:06:27.364Z,11.40
2023-12-24T23:08:55.490Z,11.40
2023-12-24T23:11:22.341Z,11.40
2023-12-24T23:13:49.091Z,11.40
2023-12-24T23:16:15.842Z,11.40
2023-12-24T23:18:42.820Z,11.40
2023-12-24T23:21:09.666Z,11.40
2023-12-24T23:23:36.832Z,11.30
2023-12-24T23:26:03.725Z,11.30
2023-12-24T23:28:30.592Z,11.30
2023-12-24T23:30:57.359Z,11.30
2023-12-24T23:33:24.446Z,11.30
2023-12-24T23:36:01.575Z,11.30
2023-12-24T23:38:32.959Z,11.30
2023-12-24T23:40:59.767Z,11.20
2023-12-24T23:43:26.714Z,11.30
2023-12-24T23:45:53.515Z,11.30
2023-12-24T23:48:20.407Z,11.30
2023-12-24T23:50:48.269Z,11.20
2023-12-24T23:53:15.107Z,11.20
2023-12-24T23:55:43.028Z,11.10
2023-12-24T23:58:09.780Z,11.10
